Clarendon Springs, Vermont
Current Conditions -  °F | °C
As of 5:55 AM on Saturday 25 Oct 2014 (Local Time) from KRUT Reporting Station
Few Clouds Few Clouds  
Wind Chill: 34°   Ceiling: Unl
Heat Index: 34°   Visibility: 10mi
Dew Point: 32°   Wind: 3mph
Humidity: 93%   Direction: 120°ESE
Pressure: 29.8"   Gusts: NA
Location:  43.5746°N, 73.0567°W
Report Text: KRUT 250955Z 12003KT 10SM FEW004 01/00 A2980 RMK AO1
Loading
Personal Weather Stations






























Interactive Weather Map
Tropical Storm Tracking
New forecast layout! Learn more

10-Day Weather Forecast

Advertisements
Track Severe Weather on mobile